createdAt,value
2022-10-17T00:00:48.468Z,21.32
2022-10-17T00:03:19.052Z,23.01
2022-10-17T00:05:50.432Z,21.37
2022-10-17T00:08:21.753Z,22.40
2022-10-17T00:11:01.392Z,22.17
2022-10-17T00:16:03.977Z,21.54
2022-10-17T00:18:34.507Z,21.36
2022-10-17T00:21:04.656Z,23.44
2022-10-17T00:23:36.063Z,22.11
2022-10-17T00:26:08.224Z,22.66
2022-10-17T00:28:39.050Z,22.02
2022-10-17T00:31:09.275Z,21.55
2022-10-17T00:33:41.039Z,22.22
2022-10-17T00:36:24.381Z,21.20
2022-10-17T00:38:57.707Z,21.16
2022-10-17T00:41:34.943Z,20.66
2022-10-17T00:44:32.812Z,20.94
2022-10-17T00:47:10.307Z,20.97
2022-10-17T00:49:42.817Z,21.88
2022-10-17T00:52:23.339Z,20.43
2022-10-17T00:55:20.432Z,20.52
2022-10-17T00:57:51.026Z,21.72
2022-10-17T01:00:22.497Z,22.27
2022-10-17T01:02:53.333Z,20.49
2022-10-17T01:05:25.128Z,20.15
2022-10-17T01:07:55.746Z,20.88
2022-10-17T01:10:33.481Z,20.48
2022-10-17T01:13:19.700Z,19.74
2022-10-17T01:15:58.305Z,21.10
2022-10-17T01:18:49.748Z,19.97
2022-10-17T01:21:50.937Z,19.67
2022-10-17T01:24:47.262Z,21.91
2022-10-17T01:27:46.656Z,22.75
2022-10-17T01:31:14.863Z,20.78
2022-10-17T01:34:06.993Z,20.54
2022-10-17T01:37:00.004Z,20.06
2022-10-17T01:39:56.542Z,19.21
2022-10-17T01:42:59.900Z,19.51
2022-10-17T01:45:47.952Z,19.10
2022-10-17T01:48:28.490Z,20.24
2022-10-17T01:51:04.022Z,19.32
2022-10-17T01:53:43.565Z,19.27
2022-10-17T01:56:18.728Z,19.18
2022-10-17T01:58:58.954Z,19.43
2022-10-17T02:01:36.116Z,19.79
2022-10-17T02:04:08.536Z,19.50
2022-10-17T02:06:39.334Z,19.25
2022-10-17T02:09:29.159Z,19.94
2022-10-17T02:12:31.283Z,18.46
2022-10-17T02:15:07.678Z,20.18
2022-10-17T02:18:05.891Z,18.47
2022-10-17T02:20:47.828Z,18.76
2022-10-17T02:23:32.630Z,17.89
2022-10-17T02:26:21.413Z,18.48
2022-10-17T02:28:57.663Z,18.71
2022-10-17T02:31:45.759Z,18.31
2022-10-17T02:34:24.125Z,19.34
2022-10-17T02:37:00.288Z,17.86
2022-10-17T02:39:33.627Z,19.79
2022-10-17T02:42:08.156Z,18.21
2022-10-17T02:44:42.789Z,18.59
2022-10-17T02:47:23.727Z,18.95
2022-10-17T02:49:57.151Z,17.85
2022-10-17T02:52:39.863Z,18.93
2022-10-17T02:55:38.171Z,19.48
2022-10-17T02:58:32.335Z,18.49
2022-10-17T03:01:06.671Z,17.36
2022-10-17T03:03:36.792Z,18.39
2022-10-17T03:06:07.088Z,19.07
2022-10-17T03:11:12.676Z,18.57
2022-10-17T03:13:43.294Z,18.34
2022-10-17T03:16:13.590Z,19.57
2022-10-17T03:18:46.614Z,18.17
2022-10-17T03:21:20.059Z,17.81
2022-10-17T03:23:50.675Z,18.36
2022-10-17T03:26:23.202Z,18.02
2022-10-17T03:28:54.645Z,18.79
2022-10-17T03:31:26.185Z,18.67
2022-10-17T03:33:58.579Z,19.39
2022-10-17T03:36:28.963Z,17.37
2022-10-17T03:38:59.943Z,18.30
2022-10-17T03:41:31.005Z,19.16
2022-10-17T03:44:01.559Z,18.23
2022-10-17T03:46:31.787Z,17.76
2022-10-17T03:49:03.607Z,17.98
2022-10-17T03:51:36.635Z,18.00
2022-10-17T03:54:12.012Z,18.84
2022-10-17T03:56:42.946Z,18.64
2022-10-17T03:59:17.650Z,18.64
2022-10-17T04:01:56.561Z,18.21
2022-10-17T04:04:27.003Z,17.55
2022-10-17T04:06:57.554Z,19.33
2022-10-17T04:09:28.573Z,18.71
2022-10-17T04:12:13.098Z,17.33
2022-10-17T04:14:43.633Z,18.31
2022-10-17T04:17:13.746Z,17.76
2022-10-17T04:19:43.902Z,17.08
2022-10-17T04:22:17.353Z,16.67
2022-10-17T04:24:48.007Z,18.85
2022-10-17T04:27:39.948Z,17.01
2022-10-17T04:30:11.627Z,18.18
2022-10-17T04:32:42.427Z,18.14
2022-10-17T04:35:24.577Z,17.49
2022-10-17T04:38:02.672Z,16.99
2022-10-17T04:40:33.056Z,16.95
2022-10-17T04:43:03.843Z,17.71
2022-10-17T04:45:38.703Z,18.62
2022-10-17T04:48:09.531Z,16.84
2022-10-17T04:50:39.988Z,18.00
2022-10-17T04:53:32.698Z,17.73
2022-10-17T04:56:04.210Z,18.84
2022-10-17T04:58:34.571Z,19.54
2022-10-17T05:01:10.531Z,19.87
2022-10-17T05:03:43.247Z,18.82
2022-10-17T05:06:21.000Z,18.41
2022-10-17T05:09:08.565Z,17.34
2022-10-17T05:11:39.953Z,18.47
2022-10-17T05:14:10.722Z,17.58
2022-10-17T05:16:41.264Z,18.55
2022-10-17T05:19:13.180Z,17.93
2022-10-17T05:21:49.316Z,20.05
2022-10-17T05:24:20.224Z,18.74
2022-10-17T05:26:53.492Z,18.60
2022-10-17T05:29:25.451Z,18.12
2022-10-17T05:32:04.781Z,19.14
2022-10-17T05:34:37.188Z,18.41
2022-10-17T05:37:08.210Z,19.51
2022-10-17T05:39:39.017Z,19.68
2022-10-17T05:42:09.992Z,20.01
2022-10-17T05:44:42.696Z,17.68
2022-10-17T05:47:13.105Z,17.66
2022-10-17T05:49:49.785Z,17.47
2022-10-17T05:52:23.886Z,17.60
2022-10-17T05:55:08.285Z,21.43
2022-10-17T05:57:38.940Z,18.92
2022-10-17T06:00:14.722Z,18.56
2022-10-17T06:02:47.405Z,18.56
2022-10-17T06:05:20.828Z,18.21
2022-10-17T06:07:56.977Z,19.21
2022-10-17T06:10:30.103Z,17.53
2022-10-17T06:13:02.223Z,19.76
2022-10-17T06:15:32.628Z,20.06
2022-10-17T06:18:08.200Z,19.07
2022-10-17T06:20:40.556Z,19.18
2022-10-17T06:23:14.468Z,18.35
2022-10-17T06:25:56.137Z,19.25
2022-10-17T06:28:27.388Z,17.46
2022-10-17T06:30:57.993Z,19.03
2022-10-17T06:33:29.854Z,17.35
2022-10-17T06:36:01.058Z,18.66
2022-10-17T06:38:34.146Z,18.42
2022-10-17T06:41:14.696Z,17.32
2022-10-17T06:43:49.683Z,19.38
2022-10-17T06:46:31.227Z,19.52
2022-10-17T06:49:06.143Z,17.31
2022-10-17T06:51:59.116Z,16.95
2022-10-17T06:54:49.880Z,18.46
2022-10-17T06:57:43.938Z,18.15
2022-10-17T07:00:42.592Z,17.96
2022-10-17T07:03:14.679Z,17.71
2022-10-17T07:05:44.782Z,16.97
2022-10-17T07:08:15.949Z,18.43
2022-10-17T07:10:46.139Z,17.17
2022-10-17T07:13:16.795Z,17.39
2022-10-17T07:15:48.580Z,17.73
2022-10-17T07:18:19.850Z,16.87
2022-10-17T07:20:57.402Z,17.70
2022-10-17T07:23:28.403Z,19.05
2022-10-17T07:26:10.485Z,20.18
2022-10-17T07:28:44.048Z,20.01
2022-10-17T07:31:27.592Z,17.92
2022-10-17T07:33:57.788Z,18.08
2022-10-17T07:36:27.953Z,17.67
2022-10-17T07:38:59.400Z,18.14
2022-10-17T07:41:30.460Z,18.13
2022-10-17T07:44:00.551Z,17.31
2022-10-17T07:46:38.028Z,17.16
2022-10-17T07:49:08.715Z,17.90
2022-10-17T07:51:39.044Z,17.77
2022-10-17T07:54:09.171Z,18.46
2022-10-17T07:56:39.631Z,17.86
2022-10-17T07:59:09.809Z,17.55
2022-10-17T08:01:39.903Z,18.63
2022-10-17T08:04:09.970Z,19.21
2022-10-17T08:06:40.191Z,17.83
2022-10-17T08:09:10.342Z,19.12
2022-10-17T08:11:40.797Z,18.29
2022-10-17T08:14:11.327Z,18.54
2022-10-17T08:16:42.359Z,18.77
2022-10-17T08:19:12.895Z,17.82
2022-10-17T08:21:45.039Z,20.29
2022-10-17T08:24:15.290Z,18.25
2022-10-17T08:26:48.251Z,18.97
2022-10-17T08:29:19.810Z,18.55
2022-10-17T08:31:52.417Z,19.44
2022-10-17T08:34:26.530Z,19.48
2022-10-17T08:36:56.900Z,18.33
2022-10-17T08:39:27.318Z,20.32
2022-10-17T08:42:12.698Z,20.64
2022-10-17T08:45:04.437Z,19.98
2022-10-17T08:47:41.059Z,20.06
2022-10-17T08:50:30.918Z,20.59
2022-10-17T08:53:10.965Z,20.64
2022-10-17T08:55:47.283Z,21.27
2022-10-17T08:58:31.999Z,19.34
2022-10-17T09:01:45.808Z,19.29
2022-10-17T09:04:15.959Z,21.42
2022-10-17T09:06:57.391Z,21.68
2022-10-17T09:09:36.126Z,22.03
2022-10-17T09:12:35.871Z,20.75
2022-10-17T09:15:31.487Z,23.29
2022-10-17T09:18:40.915Z,23.19
2022-10-17T09:21:30.638Z,23.05
2022-10-17T09:24:15.767Z,22.54
2022-10-17T09:26:48.357Z,23.05
2022-10-17T09:29:25.378Z,22.97
2022-10-17T09:32:15.675Z,23.38
2022-10-17T09:34:46.073Z,23.27
2022-10-17T09:37:19.151Z,23.29
2022-10-17T09:39:49.536Z,22.65
2022-10-17T09:42:23.157Z,22.90
2022-10-17T09:45:16.307Z,24.09
2022-10-17T09:47:52.816Z,23.32
2022-10-17T09:50:30.415Z,24.32
2022-10-17T09:53:45.655Z,24.12
2022-10-17T09:56:21.527Z,24.36
2022-10-17T09:58:57.027Z,25.00
2022-10-17T10:01:30.724Z,24.66
2022-10-17T10:04:13.222Z,25.47
2022-10-17T10:07:07.763Z,25.58
2022-10-17T10:09:40.517Z,26.08
2022-10-17T10:12:25.434Z,25.35
2022-10-17T10:14:56.527Z,26.05
2022-10-17T10:17:45.527Z,26.17
2022-10-17T10:20:32.267Z,27.12
2022-10-17T10:23:23.517Z,26.15
2022-10-17T10:26:01.207Z,25.76
2022-10-17T10:28:35.185Z,26.54
2022-10-17T10:31:09.650Z,25.58
2022-10-17T10:33:50.205Z,25.15
2022-10-17T10:36:24.215Z,24.53
2022-10-17T10:39:02.404Z,25.10
2022-10-17T10:41:50.032Z,25.19
2022-10-17T10:44:25.912Z,25.95
2022-10-17T10:47:17.195Z,25.79
2022-10-17T10:49:47.682Z,26.51
2022-10-17T10:52:59.463Z,26.51
2022-10-17T10:55:34.464Z,26.45
2022-10-17T10:58:28.352Z,26.34
2022-10-17T11:01:02.861Z,25.96
2022-10-17T11:03:44.879Z,26.47
2022-10-17T11:06:24.446Z,26.02
2022-10-17T11:09:17.053Z,26.03
2022-10-17T11:12:09.962Z,26.74
2022-10-17T11:15:09.359Z,26.36
2022-10-17T11:18:24.536Z,26.75
2022-10-17T11:21:20.888Z,26.41
2022-10-17T11:24:03.619Z,26.08
2022-10-17T11:26:47.117Z,26.79
2022-10-17T11:29:17.545Z,27.06
2022-10-17T11:31:54.516Z,27.44
2022-10-17T11:34:38.253Z,27.59
2022-10-17T11:37:18.551Z,27.17
2022-10-17T11:40:08.032Z,27.53
2022-10-17T11:42:53.651Z,27.44
2022-10-17T11:45:27.703Z,27.56
2022-10-17T11:48:28.694Z,27.97
2022-10-17T11:54:32.971Z,28.33
2022-10-17T11:57:41.408Z,28.80
2022-10-17T12:00:42.166Z,28.54
2022-10-17T12:03:22.239Z,28.84
2022-10-17T12:06:11.191Z,29.39
2022-10-17T12:09:18.541Z,30.00
2022-10-17T12:12:26.222Z,28.83
2022-10-17T12:15:16.666Z,29.63
2022-10-17T12:17:57.594Z,31.40
2022-10-17T12:20:31.959Z,30.42
2022-10-17T12:23:14.791Z,31.71
2022-10-17T12:26:01.080Z,29.87
2022-10-17T12:28:40.571Z,30.87
2022-10-17T12:31:18.680Z,31.75
2022-10-17T12:33:55.045Z,30.49
2022-10-17T12:36:25.457Z,31.10
2022-10-17T12:39:04.753Z,30.87
2022-10-17T12:41:40.985Z,30.66
2022-10-17T12:44:23.663Z,31.09
2022-10-17T12:47:12.243Z,30.15
2022-10-17T12:49:45.127Z,31.70
2022-10-17T12:52:34.148Z,31.10
2022-10-17T12:55:13.434Z,32.59
2022-10-17T12:57:44.871Z,32.20
2022-10-17T13:00:59.561Z,32.39
2022-10-17T13:03:44.639Z,31.93
2022-10-17T13:06:23.969Z,32.91
2022-10-17T13:09:09.840Z,32.23
2022-10-17T13:11:42.221Z,32.28
2022-10-17T13:14:16.979Z,32.33
2022-10-17T13:16:57.330Z,32.27
2022-10-17T13:19:48.003Z,32.53
2022-10-17T13:22:30.733Z,33.25
2022-10-17T13:25:20.609Z,32.78
2022-10-17T13:27:51.624Z,33.63
2022-10-17T13:30:32.004Z,32.01
2022-10-17T13:33:03.961Z,32.72
2022-10-17T13:35:58.807Z,33.16
2022-10-17T13:38:30.543Z,32.80
2022-10-17T13:41:16.587Z,33.07
2022-10-17T13:43:52.751Z,32.11
2022-10-17T13:46:37.819Z,33.34
2022-10-17T13:49:22.183Z,33.66
2022-10-17T13:51:56.400Z,34.65
2022-10-17T13:54:47.851Z,33.09
2022-10-17T13:57:28.748Z,33.25
2022-10-17T14:00:17.595Z,33.16
2022-10-17T14:02:48.159Z,33.73
2022-10-17T14:05:21.818Z,33.00
2022-10-17T14:08:11.230Z,34.28
2022-10-17T14:10:45.651Z,32.79
2022-10-17T14:13:37.309Z,33.43
2022-10-17T14:16:10.027Z,33.81
2022-10-17T14:18:42.082Z,33.97
2022-10-17T14:24:19.315Z,34.23
2022-10-17T14:27:00.196Z,35.17
2022-10-17T14:29:51.979Z,34.81
2022-10-17T14:32:24.338Z,35.77
2022-10-17T14:35:17.892Z,33.56
2022-10-17T14:37:59.312Z,34.28
2022-10-17T14:40:31.669Z,34.88
2022-10-17T14:43:07.130Z,34.15
2022-10-17T14:45:41.771Z,33.96
2022-10-17T14:48:16.699Z,35.37
2022-10-17T14:51:10.993Z,35.53
2022-10-17T14:53:43.966Z,34.57
2022-10-17T14:56:29.352Z,34.76
2022-10-17T14:58:59.844Z,33.55
2022-10-17T15:01:30.255Z,35.55
2022-10-17T15:04:00.722Z,35.07
2022-10-17T15:06:34.600Z,33.95
2022-10-17T15:09:06.188Z,34.30
2022-10-17T15:11:36.609Z,33.57
2022-10-17T15:14:07.014Z,34.12
2022-10-17T15:16:38.773Z,33.41
2022-10-17T15:19:09.026Z,33.13
2022-10-17T15:21:43.217Z,34.84
2022-10-17T15:24:17.502Z,34.00
2022-10-17T15:26:47.995Z,33.30
2022-10-17T15:29:18.584Z,33.15
2022-10-17T15:31:48.908Z,32.95
2022-10-17T15:34:19.158Z,33.11
2022-10-17T15:36:55.431Z,32.93
2022-10-17T15:39:25.795Z,32.54
2022-10-17T15:41:56.087Z,33.16
2022-10-17T15:44:26.311Z,32.57
2022-10-17T15:46:58.810Z,33.26
2022-10-17T15:49:29.221Z,33.68
2022-10-17T15:51:59.473Z,32.86
2022-10-17T15:54:29.752Z,32.72
2022-10-17T15:57:00.028Z,33.70
2022-10-17T15:59:35.877Z,33.28
2022-10-17T16:02:06.204Z,33.54
2022-10-17T16:04:37.050Z,32.83
2022-10-17T16:07:08.723Z,33.29
2022-10-17T16:09:39.436Z,32.88
2022-10-17T16:12:15.637Z,34.08
2022-10-17T16:14:46.945Z,33.61
2022-10-17T16:17:18.746Z,34.82
2022-10-17T16:19:49.682Z,33.91
2022-10-17T16:22:43.530Z,34.06
2022-10-17T16:25:29.115Z,33.91
2022-10-17T16:28:01.377Z,35.05
2022-10-17T16:30:33.993Z,35.69
2022-10-17T16:33:04.537Z,36.08
2022-10-17T16:35:37.631Z,35.97
2022-10-17T16:38:09.668Z,35.06
2022-10-17T16:40:41.736Z,35.47
2022-10-17T16:43:15.660Z,35.86
2022-10-17T16:45:46.027Z,35.96
2022-10-17T16:48:16.462Z,35.10
2022-10-17T16:50:46.713Z,35.91
2022-10-17T16:53:16.881Z,35.69
2022-10-17T16:55:47.060Z,36.79
2022-10-17T16:58:17.797Z,35.39
2022-10-17T17:00:47.895Z,34.97
2022-10-17T17:03:18.483Z,36.93
2022-10-17T17:05:53.530Z,37.41
2022-10-17T17:08:24.204Z,34.93
2022-10-17T17:10:56.334Z,35.50
2022-10-17T17:13:29.667Z,34.79
2022-10-17T17:16:13.350Z,34.44
2022-10-17T17:18:44.850Z,36.68
2022-10-17T17:21:15.952Z,35.10
2022-10-17T17:23:46.649Z,35.85
2022-10-17T17:26:24.148Z,36.83
2022-10-17T17:28:55.452Z,35.50
2022-10-17T17:31:28.537Z,34.64
2022-10-17T17:34:00.227Z,34.23
2022-10-17T17:36:33.463Z,34.89
2022-10-17T17:39:06.673Z,35.73
2022-10-17T17:41:37.762Z,35.39
2022-10-17T17:44:10.171Z,35.54
2022-10-17T17:46:44.901Z,35.75
2022-10-17T17:49:16.303Z,34.90
2022-10-17T17:51:47.980Z,33.54
2022-10-17T17:54:18.849Z,33.38
2022-10-17T17:56:48.956Z,32.85
2022-10-17T17:59:19.496Z,32.91
2022-10-17T18:01:49.846Z,32.27
2022-10-17T18:04:20.053Z,32.22
2022-10-17T18:06:50.748Z,31.58
2022-10-17T18:09:21.678Z,31.12
2022-10-17T18:11:52.248Z,32.78
2022-10-17T18:14:25.133Z,33.46
2022-10-17T18:16:55.706Z,35.27
2022-10-17T18:21:57.668Z,34.50
2022-10-17T18:24:27.814Z,34.88
2022-10-17T18:27:01.048Z,34.55
2022-10-17T18:29:31.193Z,34.05
2022-10-17T18:32:02.598Z,34.06
2022-10-17T18:34:32.699Z,34.26
2022-10-17T18:37:04.075Z,34.41
2022-10-17T18:39:33.680Z,33.68
2022-10-17T18:42:03.797Z,34.19
2022-10-17T18:44:33.922Z,36.79
2022-10-17T18:47:04.562Z,35.13
2022-10-17T18:49:34.180Z,35.76
2022-10-17T18:52:04.490Z,34.88
2022-10-17T18:54:36.019Z,36.03
2022-10-17T18:57:06.298Z,36.35
2022-10-17T18:59:36.589Z,36.19
2022-10-17T19:02:07.837Z,35.83
2022-10-17T19:04:38.517Z,34.56
2022-10-17T19:07:09.012Z,36.12
2022-10-17T19:09:39.793Z,35.63
2022-10-17T19:12:10.002Z,35.32
2022-10-17T19:14:40.876Z,36.03
2022-10-17T19:17:11.047Z,36.49
2022-10-17T19:19:45.492Z,37.18
2022-10-17T19:22:15.830Z,35.72
2022-10-17T19:24:45.973Z,38.76
2022-10-17T19:27:16.287Z,39.14
2022-10-17T19:29:46.500Z,39.15
2022-10-17T19:32:19.227Z,38.17
2022-10-17T19:34:53.438Z,38.69
2022-10-17T19:37:23.780Z,38.67
2022-10-17T19:39:53.897Z,39.78
2022-10-17T19:42:24.000Z,40.36
2022-10-17T19:44:54.500Z,40.58
2022-10-17T19:47:24.633Z,39.92
2022-10-17T19:49:54.837Z,40.44
2022-10-17T19:52:24.928Z,40.91
2022-10-17T19:54:55.466Z,40.44
2022-10-17T19:57:27.238Z,40.11
2022-10-17T19:59:58.208Z,41.33
2022-10-17T20:02:28.830Z,40.46
2022-10-17T20:05:17.470Z,40.45
2022-10-17T20:07:48.623Z,39.74
2022-10-17T20:10:21.358Z,39.35
2022-10-17T20:12:51.698Z,39.49
2022-10-17T20:15:21.786Z,39.08
2022-10-17T20:17:51.908Z,39.47
2022-10-17T20:20:22.397Z,40.27
2022-10-17T20:22:52.522Z,40.59
2022-10-17T20:25:22.882Z,40.00
2022-10-17T20:27:53.444Z,39.89
2022-10-17T20:30:23.537Z,38.44
2022-10-17T20:32:56.332Z,39.47
2022-10-17T20:35:27.151Z,39.42
2022-10-17T20:37:57.522Z,39.46
2022-10-17T20:40:35.131Z,39.47
2022-10-17T20:43:08.247Z,40.15
2022-10-17T20:45:50.868Z,40.36
2022-10-17T20:48:22.336Z,39.88
2022-10-17T20:50:52.820Z,40.34
2022-10-17T20:53:36.651Z,39.91
2022-10-17T20:56:13.662Z,40.56
2022-10-17T20:58:44.056Z,40.41
2022-10-17T21:01:14.521Z,41.39
2022-10-17T21:03:46.487Z,41.29
2022-10-17T21:06:18.929Z,41.32
2022-10-17T21:08:50.221Z,40.53
2022-10-17T21:11:26.270Z,39.94
2022-10-17T21:14:08.784Z,40.24
2022-10-17T21:16:40.528Z,40.38
2022-10-17T21:19:13.313Z,40.27
2022-10-17T21:21:46.007Z,40.01
2022-10-17T21:24:20.814Z,42.15
2022-10-17T21:26:56.722Z,41.00
2022-10-17T21:29:27.575Z,40.59
2022-10-17T21:31:57.696Z,41.38
2022-10-17T21:34:27.827Z,41.93
2022-10-17T21:36:58.411Z,41.82
2022-10-17T21:39:29.092Z,42.03
2022-10-17T21:41:59.564Z,41.45
2022-10-17T21:44:30.647Z,41.77
2022-10-17T21:47:00.901Z,42.11
2022-10-17T21:49:31.855Z,42.38
2022-10-17T21:52:05.286Z,42.51
2022-10-17T21:54:36.023Z,42.94
2022-10-17T21:57:06.695Z,42.73
2022-10-17T21:59:37.055Z,42.44
2022-10-17T22:02:07.608Z,42.02
2022-10-17T22:04:37.764Z,42.80
2022-10-17T22:07:07.889Z,43.42
2022-10-17T22:09:38.000Z,43.15
2022-10-17T22:12:08.300Z,42.40
2022-10-17T22:14:38.523Z,41.83
2022-10-17T22:17:08.608Z,42.02
2022-10-17T22:19:38.787Z,41.20
2022-10-17T22:22:08.999Z,41.59
2022-10-17T22:24:39.472Z,41.19
2022-10-17T22:27:11.693Z,41.22
2022-10-17T22:29:42.192Z,41.15
2022-10-17T22:32:12.737Z,41.03
2022-10-17T22:34:43.000Z,41.02
2022-10-17T22:37:13.630Z,41.71
2022-10-17T22:39:43.794Z,41.40
2022-10-17T22:42:13.977Z,41.69
2022-10-17T22:44:44.896Z,41.22
2022-10-17T22:47:14.990Z,42.21
2022-10-17T22:49:45.505Z,42.77
2022-10-17T22:52:15.700Z,41.81
2022-10-17T22:54:45.696Z,41.69
2022-10-17T22:57:15.876Z,41.61
2022-10-17T22:59:46.195Z,41.76
2022-10-17T23:02:16.849Z,42.16
2022-10-17T23:04:47.067Z,41.88
2022-10-17T23:07:17.740Z,42.09
2022-10-17T23:09:47.920Z,42.60
2022-10-17T23:12:18.636Z,41.72
2022-10-17T23:14:48.812Z,42.30
2022-10-17T23:17:19.646Z,42.15
2022-10-17T23:19:51.894Z,41.22
2022-10-17T23:22:24.595Z,41.65
2022-10-17T23:24:54.786Z,41.05
2022-10-17T23:27:24.878Z,41.31
2022-10-17T23:29:55.217Z,41.93
2022-10-17T23:32:25.764Z,42.29
2022-10-17T23:34:56.017Z,42.55
2022-10-17T23:37:26.812Z,41.34
2022-10-17T23:39:57.130Z,41.26
2022-10-17T23:42:28.800Z,40.19
2022-10-17T23:44:59.078Z,39.94
2022-10-17T23:47:29.654Z,39.22
2022-10-17T23:50:00.270Z,39.06
2022-10-17T23:52:30.790Z,39.55
2022-10-17T23:55:00.955Z,39.62
2022-10-17T23:57:31.739Z,38.92
